Time;durP1;ratioP1;P1;durP2;ratioP2;P2;SDS_P1;SDS_P2;PMS_P1;PMS_P2;Temp;Humidity;BMP_temperature;BMP_pressure;BME280_temperature;BME280_humidity;BME280_pressure;Samples;Min_cycle;Max_cycle;Signal;HPM_P1;HPM_P2
2023/08/26 07:23:05;;;;;;;2.15;1.60;;;28.90;99.90;;;;;;4871423;28;21428;-62
2023/08/26 07:25:42;;;;;;;2.60;1.80;;;29.30;99.90;;;;;;5014568;28;20535;-68
2023/08/26 07:28:20;;;;;;;6.15;1.92;;;28.30;99.90;;;;;;4994404;28;20200;-60
2023/08/26 07:30:52;;;;;;;3.30;1.65;;;28.60;99.90;;;;;;5015546;28;20636;-68
2023/08/26 07:33:35;;;;;;;2.85;2.00;;;30.00;99.90;;;;;;5031394;28;20211;-68
2023/08/26 07:36:06;;;;;;;3.30;2.00;;;31.80;99.90;;;;;;5023736;28;20204;-58
2023/08/26 07:38:49;;;;;;;;;;;;;;;;;;;;;
2023/08/26 07:41:50;;;;;;;3.22;2.05;;;32.90;99.90;;;;;;5026664;28;20203;-66
2023/08/26 07:44:24;;;;;;;4.55;2.00;;;29.90;99.90;;;;;;5035254;28;20649;-60
2023/08/26 07:46:52;;;;;;;2.20;1.90;;;31.20;99.90;;;;;;5011203;28;20207;-68
2023/08/26 07:49:28;;;;;;;2.55;1.95;;;31.00;99.90;;;;;;5016813;28;20223;-65
2023/08/26 07:52:04;;;;;;;2.03;1.92;;;31.90;99.90;;;;;;5027291;28;20594;-71
2023/08/26 07:54:37;;;;;;;2.40;2.08;;;32.80;99.90;;;;;;5011022;28;20204;-63
2023/08/26 07:57:20;;;;;;;3.47;2.28;;;33.30;99.90;;;;;;5009950;28;20192;-64
2023/08/26 07:59:50;;;;;;;2.30;1.90;;;29.70;99.90;;;;;;5014663;28;20209;-63
2023/08/26 08:02:25;;;;;;;2.30;1.88;;;31.20;99.90;;;;;;5006950;28;20224;-64
2023/08/26 08:04:55;;;;;;;6.30;2.13;;;33.10;99.90;;;;;;5020573;28;20582;-69
2023/08/26 08:07:30;;;;;;;2.50;2.08;;;32.50;99.90;;;;;;5013502;28;20747;-62
2023/08/26 08:10:01;;;;;;;5.18;2.00;;;32.10;99.90;;;;;;5017895;28;20211;-62
2023/08/26 08:12:30;;;;;;;2.60;1.95;;;30.00;99.90;;;;;;5008577;28;20196;-66
2023/08/26 08:15:11;;;;;;;1.95;1.83;;;29.20;99.90;;;;;;5011769;28;20226;-63
2023/08/26 08:17:44;;;;;;;2.17;2.00;;;28.80;99.90;;;;;;4998446;28;20188;-62
2023/08/26 08:20:36;;;;;;;4.32;1.98;;;30.20;99.50;;;;;;5032636;28;20203;-65
2023/08/26 08:23:11;;;;;;;2.30;1.95;;;30.40;99.50;;;;;;5012802;28;20205;-66
2023/08/26 08:25:48;;;;;;;4.22;2.30;;;31.80;98.70;;;;;;5003168;28;20655;-59
2023/08/26 08:28:19;;;;;;;4.13;2.00;;;30.40;96.40;;;;;;5005414;28;20694;-62
2023/08/26 08:30:47;;;;;;;2.10;1.98;;;29.30;96.60;;;;;;5001986;28;20235;-61
2023/08/26 08:33:26;;;;;;;6.28;1.92;;;29.50;97.40;;;;;;4991760;28;20211;-67
2023/08/26 08:35:54;;;;;;;2.10;1.90;;;29.90;98.70;;;;;;5005039;28;20271;-67
2023/08/26 08:38:27;;;;;;;1.95;1.85;;;28.40;96.00;;;;;;5014425;28;20196;-67
2023/08/26 08:40:59;;;;;;;1.88;1.77;;;27.90;98.30;;;;;;5004148;28;20673;-67
2023/08/26 08:43:30;;;;;;;2.00;1.90;;;29.20;99.90;;;;;;4991896;28;20427;-70
2023/08/26 08:45:58;;;;;;;3.20;2.00;;;31.10;99.90;;;;;;5026823;28;20258;-58
2023/08/26 08:48:52;;;;;;;3.63;1.83;;;33.80;98.60;;;;;;5016830;28;20338;-66
2023/08/26 08:51:27;;;;;;;2.75;1.90;;;35.80;96.00;;;;;;5002032;28;20200;-58
2023/08/26 08:54:06;;;;;;;2.42;1.77;;;34.90;93.40;;;;;;5031199;28;20214;-62
2023/08/26 08:56:45;;;;;;;3.30;1.80;;;31.00;91.30;;;;;;4996058;28;20203;-67
2023/08/26 08:59:28;;;;;;;6.97;2.00;;;27.80;97.50;;;;;;5001826;28;20284;-61
2023/08/26 09:02:13;;;;;;;2.10;1.90;;;27.70;98.90;;;;;;5008728;28;20267;-60
2023/08/26 09:04:42;;;;;;;2.30;1.90;;;31.70;95.50;;;;;;4998116;28;20327;-63
2023/08/26 09:07:16;;;;;;;4.43;2.30;;;34.20;95.70;;;;;;5015525;28;20201;-61
2023/08/26 09:09:49;;;;;;;2.97;1.80;;;36.40;93.80;;;;;;5009308;28;20580;-61
2023/08/26 09:12:32;;;;;;;1.95;1.85;;;35.90;91.30;;;;;;5032838;28;20200;-58
2023/08/26 09:15:03;;;;;;;2.15;1.75;;;33.40;92.30;;;;;;5031073;28;20703;-66
2023/08/26 09:17:51;;;;;;;2.97;2.13;;;32.70;93.30;;;;;;5025950;28;20231;-60
2023/08/26 09:20:29;;;;;;;2.40;1.90;;;32.70;92.80;;;;;;4994454;28;20676;-60
2023/08/26 09:23:07;;;;;;;3.25;1.90;;;33.90;90.30;;;;;;4996999;28;20193;-68
2023/08/26 09:26:01;;;;;;;3.17;1.70;;;34.60;89.10;;;;;;4991424;28;20242;-59
2023/08/26 09:28:36;;;;;;;3.85;2.00;;;31.70;86.10;;;;;;5010779;28;20200;-60
2023/08/26 09:31:07;;;;;;;3.92;2.08;;;33.70;91.30;;;;;;5030647;28;20672;-59
2023/08/26 09:33:35;;;;;;;4.72;2.15;;;33.40;87.00;;;;;;5022631;28;20281;-59
2023/08/26 09:36:02;;;;;;;2.60;2.17;;;30.40;90.70;;;;;;5022054;28;20211;-58
2023/08/26 09:38:47;;;;;;;2.72;1.98;;;29.10;90.50;;;;;;4989206;28;20607;-59
2023/08/26 09:41:19;;;;;;;2.28;1.80;;;30.40;93.10;;;;;;5023742;28;20189;-58
2023/08/26 09:43:47;;;;;;;3.50;1.90;;;30.50;89.80;;;;;;5017922;28;20185;-60
2023/08/26 09:46:21;;;;;;;2.30;2.00;;;28.30;90.20;;;;;;5005841;28;20211;-59
2023/08/26 09:48:48;;;;;;;4.90;1.92;;;27.60;89.40;;;;;;5027946;28;20200;-61
2023/08/26 09:51:32;;;;;;;2.03;1.75;;;30.50;92.50;;;;;;5010155;28;20205;-59
2023/08/26 09:54:00;;;;;;;2.75;1.73;;;30.70;93.00;;;;;;5013332;28;20204;-58
2023/08/26 09:56:28;;;;;;;1.90;1.80;;;33.20;91.50;;;;;;5020392;28;20200;-59
2023/08/26 09:58:56;;;;;;;2.65;1.90;;;31.80;91.10;;;;;;5007536;28;20200;-59
2023/08/26 10:01:25;;;;;;;2.45;2.10;;;29.30;84.80;;;;;;5030638;28;20274;-58
2023/08/26 10:04:11;;;;;;;1.80;1.70;;;29.20;87.40;;;;;;5017123;28;20613;-59
2023/08/26 10:06:42;;;;;;;2.10;1.90;;;30.80;92.30;;;;;;4996823;28;20205;-59
2023/08/26 10:09:36;;;;;;;2.13;1.85;;;33.00;99.90;;;;;;5014279;28;20669;-59
2023/08/26 10:12:08;;;;;;;7.60;1.80;;;32.60;86.10;;;;;;4989797;28;20196;-59
2023/08/26 10:14:38;;;;;;;4.45;2.13;;;31.70;83.40;;;;;;5030365;28;20200;-61
2023/08/26 10:17:08;;;;;;;2.33;2.10;;;31.80;90.20;;;;;;5036231;28;20180;-59
2023/08/26 10:19:35;;;;;;;2.30;2.10;;;33.00;86.70;;;;;;5034341;28;20187;-59
2023/08/26 10:22:04;;;;;;;3.00;2.10;;;30.60;87.40;;;;;;5021070;28;20194;-59
2023/08/26 10:24:32;;;;;;;2.15;2.05;;;31.80;90.60;;;;;;5024608;28;20251;-59
2023/08/26 10:27:00;;;;;;;2.33;2.13;;;31.70;89.40;;;;;;4991516;28;20680;-60
2023/08/26 10:29:27;;;;;;;2.60;2.00;;;33.50;88.90;;;;;;5030215;28;20676;-58
2023/08/26 10:31:55;;;;;;;2.17;2.00;;;33.50;85.80;;;;;;5013885;28;20232;-61
2023/08/26 10:34:30;;;;;;;3.58;2.00;;;35.10;84.70;;;;;;5034813;28;20211;-60
2023/08/26 10:36:57;;;;;;;2.38;2.17;;;31.30;76.60;;;;;;5021063;28;20196;-62
2023/08/26 10:39:25;;;;;;;2.35;2.10;;;30.50;77.80;;;;;;5025300;28;20857;-62
2023/08/26 10:42:16;;;;;;;2.20;2.00;;;32.60;81.10;;;;;;5007796;28;20199;-61
2023/08/26 10:44:48;;;;;;;1.98;1.88;;;30.60;74.10;;;;;;5004978;28;20595;-62
2023/08/26 10:47:44;;;;;;;6.38;2.10;;;30.20;80.10;;;;;;5008771;28;20683;-60
2023/08/26 10:50:15;;;;;;;2.75;2.35;;;30.40;75.80;;;;;;5028752;28;21418;-59
2023/08/26 10:52:42;;;;;;;2.80;2.30;;;31.00;77.00;;;;;;5018880;28;20189;-61
2023/08/26 10:55:28;;;;;;;2.22;1.98;;;31.60;77.60;;;;;;5010937;28;20316;-60
2023/08/26 10:58:10;;;;;;;3.20;2.03;;;32.80;76.20;;;;;;5011978;28;20189;-59
2023/08/26 11:00:58;;;;;;;2.22;2.10;;;31.90;72.20;;;;;;5009581;28;20200;-59
2023/08/26 11:03:25;;;;;;;2.45;2.25;;;32.60;73.70;;;;;;4984867;28;20227;-61
2023/08/26 11:06:04;;;;;;;5.03;2.45;;;32.10;72.80;;;;;;5019982;28;20201;-59
2023/08/26 11:08:35;;;;;;;2.30;2.10;;;32.00;71.70;;;;;;5013496;28;20283;-61
2023/08/26 11:11:03;;;;;;;2.03;1.92;;;32.40;71.60;;;;;;5020520;28;20188;-60
2023/08/26 11:13:30;;;;;;;2.80;2.20;;;29.20;67.20;;;;;;5007867;28;20649;-62
2023/08/26 11:15:58;;;;;;;2.10;2.00;;;28.90;69.30;;;;;;5003967;28;20604;-61
2023/08/26 11:18:25;;;;;;;2.55;2.35;;;30.10;74.80;;;;;;5009807;28;20195;-63
2023/08/26 11:20:52;;;;;;;3.15;2.03;;;31.00;68.90;;;;;;5019385;28;20195;-63
2023/08/26 11:23:23;;;;;;;2.25;2.05;;;29.40;69.80;;;;;;5024612;28;20711;-59
2023/08/26 11:25:50;;;;;;;2.13;1.95;;;28.10;72.00;;;;;;5021756;28;20236;-59
2023/08/26 11:28:17;;;;;;;2.53;2.10;;;28.90;72.40;;;;;;5032052;28;20610;-60
2023/08/26 11:30:51;;;;;;;3.65;2.00;;;29.10;73.90;;;;;;5025894;28;20208;-59
2023/08/26 11:33:21;;;;;;;2.13;2.03;;;30.00;70.60;;;;;;5016812;28;20272;-68
2023/08/26 11:35:50;;;;;;;2.33;2.00;;;29.20;70.80;;;;;;5006819;28;20231;-58
2023/08/26 11:38:35;;;;;;;2.97;1.80;;;30.10;72.10;;;;;;4998769;28;20196;-60
2023/08/26 11:41:03;;;;;;;2.55;1.90;;;30.50;71.00;;;;;;5020507;28;20200;-62
2023/08/26 11:43:30;;;;;;;3.58;2.00;;;29.00;69.80;;;;;;4999149;28;20664;-60
2023/08/26 11:45:57;;;;;;;2.22;2.13;;;29.20;67.80;;;;;;5023339;28;20196;-60
2023/08/26 11:48:25;;;;;;;2.17;1.98;;;28.40;69.30;;;;;;5027368;28;20200;-59
2023/08/26 11:51:00;;;;;;;2.13;1.92;;;28.20;71.30;;;;;;5007960;28;20680;-59
2023/08/26 11:53:27;;;;;;;2.28;2.17;;;27.70;69.90;;;;;;5015293;28;20183;-60
2023/08/26 11:55:55;;;;;;;2.13;2.03;;;27.50;74.00;;;;;;5005843;28;20210;-61
2023/08/26 11:58:22;;;;;;;1.90;1.80;;;28.60;73.90;;;;;;5022365;28;20234;-61
2023/08/26 12:00:49;;;;;;;2.10;2.00;;;30.20;74.40;;;;;;5030446;28;20282;-58
2023/08/26 12:03:17;;;;;;;1.90;1.80;;;30.70;70.10;;;;;;5005752;28;20795;-58
2023/08/26 12:05:48;;;;;;;2.13;2.03;;;30.40;66.70;;;;;;5017298;28;20188;-58
2023/08/26 12:08:21;;;;;;;3.85;2.10;;;30.20;67.40;;;;;;5016942;28;20368;-59
2023/08/26 12:10:49;;;;;;;3.80;2.90;;;27.90;66.70;;;;;;5026569;28;20212;-62
2023/08/26 12:13:17;;;;;;;2.20;2.00;;;27.70;68.90;;;;;;5019374;28;20192;-58
2023/08/26 12:15:44;;;;;;;2.10;2.00;;;28.30;72.30;;;;;;5001386;28;20307;-58
2023/08/26 12:18:12;;;;;;;2.90;2.22;;;29.60;70.90;;;;;;5002046;28;20448;-59
2023/08/26 12:20:46;;;;;;;2.47;1.80;;;28.80;67.00;;;;;;4992238;28;20667;-59
2023/08/26 12:23:16;;;;;;;2.30;2.10;;;28.30;70.80;;;;;;5002495;28;20551;-58
2023/08/26 12:25:44;;;;;;;2.42;2.20;;;28.20;71.30;;;;;;5024052;28;20236;-58
2023/08/26 12:28:24;;;;;;;2.30;2.10;;;26.80;66.30;;;;;;5001436;28;20576;-62
2023/08/26 12:30:51;;;;;;;2.20;2.10;;;26.90;73.70;;;;;;5021778;28;20660;-62
2023/08/26 12:33:19;;;;;;;2.60;2.40;;;26.10;71.70;;;;;;4998648;28;20714;-59
2023/08/26 12:35:53;;;;;;;2.58;2.30;;;27.50;75.10;;;;;;5001219;28;20211;-59
2023/08/26 12:38:21;;;;;;;3.28;2.10;;;27.40;72.30;;;;;;5027466;28;20220;-59
2023/08/26 12:40:48;;;;;;;2.20;2.00;;;27.90;73.70;;;;;;5008689;28;20196;-59
2023/08/26 12:43:18;;;;;;;3.45;2.40;;;27.40;73.70;;;;;;5004995;28;20676;-59
2023/08/26 12:45:46;;;;;;;2.50;2.30;;;27.30;71.70;;;;;;5013208;28;20852;-69
2023/08/26 12:48:14;;;;;;;2.30;2.20;;;26.40;70.50;;;;;;5015728;28;20200;-65
2023/08/26 12:50:59;;;;;;;2.55;2.20;;;26.20;73.50;;;;;;5001400;28;20877;-67
2023/08/26 12:53:26;;;;;;;2.42;2.25;;;26.30;73.50;;;;;;5012787;28;20196;-67
2023/08/26 12:55:53;;;;;;;2.22;2.03;;;26.50;72.60;;;;;;5030140;28;20671;-70
2023/08/26 12:58:26;;;;;;;2.30;2.10;;;26.00;70.90;;;;;;5029669;28;20594;-71
2023/08/26 13:00:53;;;;;;;2.45;2.05;;;25.60;72.60;;;;;;5023592;28;20196;-69
2023/08/26 13:03:20;;;;;;;1.88;1.77;;;25.60;73.40;;;;;;5027077;28;20228;-70
2023/08/26 13:05:57;;;;;;;2.10;2.00;;;25.30;73.00;;;;;;5011445;28;20290;-67
2023/08/26 13:08:24;;;;;;;2.33;2.13;;;25.20;74.80;;;;;;5027372;28;20696;-69
2023/08/26 13:10:51;;;;;;;2.10;2.00;;;25.20;75.90;;;;;;5019484;28;20541;-69
2023/08/26 13:13:18;;;;;;;2.00;1.90;;;25.90;74.70;;;;;;5024816;28;20271;-68
2023/08/26 13:15:45;;;;;;;2.38;2.17;;;26.80;76.20;;;;;;5028392;28;20381;-69
2023/08/26 13:18:12;;;;;;;2.25;2.05;;;26.20;73.70;;;;;;5027004;28;20223;-68
2023/08/26 13:20:40;;;;;;;1.95;1.85;;;26.30;74.70;;;;;;4994014;28;20196;-69
2023/08/26 13:23:09;;;;;;;2.35;2.00;;;25.60;73.10;;;;;;5009503;28;20218;-68
2023/08/26 13:25:37;;;;;;;3.05;2.10;;;24.80;75.20;;;;;;5028584;28;20259;-70
2023/08/26 13:28:06;;;;;;;2.00;1.90;;;24.80;76.40;;;;;;5007661;28;20196;-69
2023/08/26 13:30:33;;;;;;;2.38;2.17;;;24.90;76.10;;;;;;5009971;28;20787;-68
2023/08/26 13:33:00;;;;;;;2.30;2.10;;;24.90;75.50;;;;;;5012300;28;20196;-68
2023/08/26 13:35:27;;;;;;;1.90;1.80;;;24.60;75.20;;;;;;5009879;28;20223;-68
2023/08/26 13:37:54;;;;;;;2.40;2.20;;;25.10;75.40;;;;;;5028882;28;20203;-66
2023/08/26 13:40:21;;;;;;;5.68;2.10;;;25.20;77.60;;;;;;5029063;28;20188;-67
2023/08/26 13:42:50;;;;;;;1.95;1.85;;;25.40;78.30;;;;;;5008901;28;20209;-68
2023/08/26 13:45:17;;;;;;;2.13;1.80;;;25.10;76.30;;;;;;5002105;28;20568;-68
2023/08/26 13:47:44;;;;;;;2.08;1.98;;;24.80;77.20;;;;;;5029443;28;20274;-70
2023/08/26 13:50:11;;;;;;;2.25;2.05;;;24.20;76.90;;;;;;5029232;28;20200;-65
2023/08/26 13:52:39;;;;;;;2.28;2.10;;;24.90;78.60;;;;;;5027249;28;20279;-67
2023/08/26 13:55:06;;;;;;;2.97;2.35;;;25.40;77.30;;;;;;5008672;28;20256;-59
2023/08/26 13:57:34;;;;;;;2.10;1.90;;;25.80;77.60;;;;;;5029031;28;20519;-60
2023/08/26 14:00:01;;;;;;;2.20;2.00;;;25.20;77.50;;;;;;5018892;28;20224;-63
2023/08/26 14:02:37;;;;;;;4.22;2.22;;;25.40;78.30;;;;;;5013595;28;20232;-60
2023/08/26 14:05:07;;;;;;;2.05;1.95;;;25.60;77.70;;;;;;5032282;28;20246;-60
2023/08/26 14:07:34;;;;;;;5.25;3.38;;;25.00;78.60;;;;;;5011936;28;20204;-59
2023/08/26 14:10:01;;;;;;;2.58;1.95;;;24.70;78.00;;;;;;5011829;28;20204;-59
2023/08/26 14:12:28;;;;;;;2.28;2.08;;;25.30;77.80;;;;;;5029386;28;20212;-60
2023/08/26 14:14:55;;;;;;;3.85;2.30;;;24.60;77.90;;;;;;5028927;28;20188;-61
2023/08/26 14:17:22;;;;;;;1.95;1.85;;;25.00;81.00;;;;;;5020404;28;20192;-61
2023/08/26 14:19:49;;;;;;;2.58;2.00;;;24.70;77.60;;;;;;5004751;28;20185;-61
2023/08/26 14:22:17;;;;;;;3.30;2.70;;;24.70;77.40;;;;;;5010998;28;20204;-60
2023/08/26 14:24:47;;;;;;;2.10;2.00;;;25.20;77.80;;;;;;5019854;28;20807;-60
2023/08/26 14:27:15;;;;;;;3.30;2.30;;;25.20;77.00;;;;;;5005099;28;20205;-61
2023/08/26 14:29:43;;;;;;;4.18;2.63;;;25.00;78.50;;;;;;5023449;28;20279;-60
2023/08/26 14:32:09;;;;;;;2.92;2.28;;;25.50;79.60;;;;;;5000059;28;20395;-58
2023/08/26 14:34:36;;;;;;;4.20;3.40;;;25.20;75.20;;;;;;5026618;28;20223;-61
2023/08/26 14:37:04;;;;;;;2.15;2.05;;;25.00;78.10;;;;;;5005030;28;20220;-59
2023/08/26 14:39:30;;;;;;;2.42;2.22;;;25.00;76.20;;;;;;5004312;28;20203;-62
2023/08/26 14:41:57;;;;;;;2.70;2.50;;;25.00;77.80;;;;;;5027551;28;20275;-61
2023/08/26 14:44:26;;;;;;;2.75;2.30;;;24.90;77.00;;;;;;5027617;28;20198;-61
2023/08/26 14:46:53;;;;;;;2.67;2.33;;;24.90;77.60;;;;;;5002879;28;20195;-61
2023/08/26 14:49:20;;;;;;;2.40;2.15;;;24.20;78.90;;;;;;5024277;28;20192;-61
2023/08/26 14:51:47;;;;;;;2.97;1.88;;;24.20;77.30;;;;;;5021394;28;20775;-62
2023/08/26 14:54:14;;;;;;;2.15;1.98;;;24.00;77.30;;;;;;5026172;28;20209;-63
2023/08/26 14:56:41;;;;;;;3.17;2.30;;;24.00;78.30;;;;;;5021357;28;20215;-64
2023/08/26 14:59:08;;;;;;;2.40;2.20;;;24.10;78.30;;;;;;5019606;28;20197;-60
2023/08/26 15:01:35;;;;;;;2.90;2.50;;;24.00;79.20;;;;;;5008124;28;20263;-60
2023/08/26 15:04:02;;;;;;;2.70;2.50;;;24.30;80.40;;;;;;5020796;28;20262;-60
2023/08/26 15:06:29;;;;;;;2.60;2.40;;;24.10;79.70;;;;;;5013434;28;20200;-59
2023/08/26 15:08:56;;;;;;;2.70;2.50;;;24.20;78.70;;;;;;5023547;28;20209;-64
2023/08/26 15:11:23;;;;;;;2.40;2.20;;;24.50;80.60;;;;;;5023731;28;20188;-61
2023/08/26 15:13:50;;;;;;;4.22;2.80;;;24.50;81.00;;;;;;5016030;28;20192;-60
2023/08/26 15:16:17;;;;;;;3.17;2.40;;;24.80;82.00;;;;;;5002796;28;20708;-59
2023/08/26 15:18:44;;;;;;;3.17;2.72;;;24.80;80.10;;;;;;5026782;28;20250;-63
2023/08/26 15:21:11;;;;;;;5.20;3.33;;;24.50;80.00;;;;;;5023350;28;20528;-59
2023/08/26 15:23:38;;;;;;;5.00;2.40;;;24.30;80.50;;;;;;5027694;28;20200;-58
2023/08/26 15:26:05;;;;;;;3.55;3.08;;;24.20;80.30;;;;;;5006609;28;20297;-59
2023/08/26 15:28:32;;;;;;;2.42;2.20;;;24.20;80.40;;;;;;5018852;28;20200;-58
2023/08/26 15:30:59;;;;;;;2.45;2.17;;;24.00;82.20;;;;;;5005372;28;20639;-58
2023/08/26 15:33:26;;;;;;;3.40;2.47;;;24.30;81.30;;;;;;5026170;28;20356;-59
2023/08/26 15:35:53;;;;;;;2.83;2.10;;;24.60;82.60;;;;;;5025119;28;20223;-58
2023/08/26 15:38:21;;;;;;;5.97;2.28;;;24.60;82.90;;;;;;5009878;28;20196;-59
2023/08/26 15:40:51;;;;;;;3.17;2.53;;;24.40;81.40;;;;;;5026900;28;20697;-59
2023/08/26 15:43:18;;;;;;;2.17;2.08;;;24.30;79.90;;;;;;5004556;28;20193;-61
2023/08/26 15:45:46;;;;;;;2.35;2.15;;;23.90;79.90;;;;;;5008150;28;20196;-61
2023/08/26 15:48:13;;;;;;;2.00;1.90;;;23.90;82.10;;;;;;5016997;28;20635;-61
2023/08/26 15:50:40;;;;;;;3.50;2.70;;;23.50;98.00;;;;;;5027810;28;20617;-59
2023/08/26 15:53:13;;;;;;;4.35;3.00;;;23.40;82.70;;;;;;4993998;28;20274;-60
2023/08/26 15:55:41;;;;;;;5.78;4.55;;;23.50;82.20;;;;;;5009648;28;20704;-61
2023/08/26 15:58:08;;;;;;;3.38;3.17;;;23.80;82.40;;;;;;5027400;28;20218;-58
2023/08/26 16:00:35;;;;;;;4.30;2.75;;;23.80;82.60;;;;;;5027126;28;20447;-57
2023/08/26 16:03:02;;;;;;;2.15;1.90;;;24.10;85.20;;;;;;5009075;28;20220;-60
2023/08/26 16:05:32;;;;;;;3.35;2.05;;;24.10;83.40;;;;;;5027694;28;20228;-59
2023/08/26 16:07:59;;;;;;;3.20;2.00;;;23.70;83.30;;;;;;5017212;28;20193;-63
2023/08/26 16:10:26;;;;;;;2.35;2.00;;;23.90;82.10;;;;;;5020775;28;20219;-61
2023/08/26 16:12:53;;;;;;;2.53;1.85;;;23.60;82.70;;;;;;5010913;28;20220;-61
2023/08/26 16:15:20;;;;;;;2.92;2.53;;;23.50;83.20;;;;;;5023707;28;20746;-59
2023/08/26 16:17:47;;;;;;;3.42;2.10;;;23.60;83.50;;;;;;5002289;28;20236;-61
2023/08/26 16:20:14;;;;;;;4.35;2.10;;;23.90;83.20;;;;;;5021654;28;20287;-59
2023/08/26 16:22:41;;;;;;;2.38;2.00;;;24.10;83.70;;;;;;5026332;28;20184;-63
2023/08/26 16:25:08;;;;;;;1.95;1.83;;;24.10;84.00;;;;;;4992940;28;20260;-60
2023/08/26 16:27:35;;;;;;;2.10;1.90;;;23.90;84.80;;;;;;4997678;28;20204;-61
2023/08/26 16:30:04;;;;;;;2.22;1.90;;;23.50;83.80;;;;;;5003059;28;20630;-60
2023/08/26 16:32:34;;;;;;;2.45;2.20;;;23.60;85.00;;;;;;5004064;28;20747;-59
2023/08/26 16:35:03;;;;;;;2.50;2.00;;;23.90;86.60;;;;;;5004513;28;20209;-59
2023/08/26 16:37:30;;;;;;;2.92;2.22;;;24.00;84.50;;;;;;4991896;28;20647;-59
2023/08/26 16:39:58;;;;;;;2.53;2.05;;;23.70;83.80;;;;;;5003752;28;20604;-60
2023/08/26 16:42:25;;;;;;;3.47;2.63;;;23.80;84.90;;;;;;5007243;28;20184;-61
2023/08/26 16:44:53;;;;;;;3.28;2.83;;;24.00;85.90;;;;;;5006750;28;20221;-60
2023/08/26 16:47:20;;;;;;;3.45;3.13;;;24.00;86.10;;;;;;5003800;28;20596;-60
2023/08/26 16:50:29;;;;;;;3.03;2.70;;;24.10;87.90;;;;;;5017822;28;20255;-69
2023/08/26 16:52:58;;;;;;;3.53;2.40;;;23.90;89.70;;;;;;5005342;28;20193;-60
2023/08/26 16:55:29;;;;;;;7.28;2.22;;;23.80;87.20;;;;;;5002928;28;20705;-67
2023/08/26 16:57:56;;;;;;;2.30;2.10;;;23.70;86.90;;;;;;5003962;28;20296;-65
2023/08/26 17:00:23;;;;;;;2.03;1.83;;;23.80;87.50;;;;;;5007882;28;20196;-62
2023/08/26 17:02:50;;;;;;;3.75;2.40;;;23.50;86.30;;;;;;5004683;28;20736;-59
2023/08/26 17:05:17;;;;;;;4.38;2.45;;;23.30;86.40;;;;;;4995957;28;20193;-67
2023/08/26 17:07:44;;;;;;;3.85;3.15;;;23.30;88.50;;;;;;4994992;28;20197;-61
2023/08/26 17:10:11;;;;;;;2.20;2.05;;;23.10;87.10;;;;;;4999377;28;20205;-62
2023/08/26 17:12:39;;;;;;;2.42;2.20;;;23.00;87.40;;;;;;5005270;28;20204;-68
2023/08/26 17:15:06;;;;;;;4.72;3.08;;;22.90;89.70;;;;;;5005693;28;20239;-69
2023/08/26 17:17:36;;;;;;;2.75;2.55;;;22.90;89.70;;;;;;5004848;28;20907;-69
2023/08/26 17:20:04;;;;;;;2.75;2.55;;;22.80;99.90;;;;;;4997104;28;20204;-71
2023/08/26 17:22:31;;;;;;;2.80;2.60;;;22.60;90.00;;;;;;5002009;28;20288;-67
2023/08/26 17:24:58;;;;;;;2.58;2.38;;;22.50;89.80;;;;;;5008262;28;20290;-67
2023/08/26 17:27:31;;;;;;;1.98;1.88;;;22.40;89.60;;;;;;5022905;28;20639;-68
2023/08/26 17:29:59;;;;;;;3.45;2.42;;;22.20;90.30;;;;;;5009122;28;20292;-68
2023/08/26 17:32:26;;;;;;;2.28;2.17;;;22.10;91.80;;;;;;5011596;28;20612;-59
2023/08/26 17:34:53;;;;;;;2.55;2.30;;;22.00;91.50;;;;;;5003259;28;20212;-60
2023/08/26 17:37:22;;;;;;;3.13;2.05;;;22.10;91.90;;;;;;5005309;28;20685;-60
2023/08/26 17:39:50;;;;;;;2.47;2.20;;;22.10;92.40;;;;;;5007707;28;20196;-61
2023/08/26 17:42:20;;;;;;;2.30;2.10;;;22.00;91.70;;;;;;5024774;28;20196;-63
2023/08/26 17:44:48;;;;;;;2.80;2.47;;;21.80;92.40;;;;;;5010856;28;20200;-62
2023/08/26 17:47:15;;;;;;;2.40;2.20;;;21.70;92.70;;;;;;4997870;28;20189;-67
2023/08/26 17:49:42;;;;;;;3.15;2.17;;;21.70;92.40;;;;;;5007873;28;20193;-68
2023/08/26 17:52:12;;;;;;;6.72;2.35;;;21.50;92.20;;;;;;4995850;28;20669;-69
2023/08/26 17:54:40;;;;;;;2.63;2.42;;;21.30;92.40;;;;;;5009716;28;20567;-69
2023/08/26 17:57:07;;;;;;;3.03;2.40;;;21.10;94.10;;;;;;5022811;28;20218;-67
2023/08/26 17:59:34;;;;;;;2.35;2.05;;;21.10;94.30;;;;;;5029445;28;20280;-69
2023/08/26 18:02:01;;;;;;;2.28;2.08;;;21.10;95.00;;;;;;5026771;28;20231;-69
2023/08/26 18:04:28;;;;;;;2.75;2.25;;;20.90;95.30;;;;;;5008077;28;20668;-69
2023/08/26 18:06:58;;;;;;;3.13;2.10;;;20.90;96.20;;;;;;5025353;28;20286;-70
2023/08/26 18:09:26;;;;;;;2.30;2.10;;;20.70;96.30;;;;;;5030768;28;20219;-61
2023/08/26 18:11:54;;;;;;;2.95;2.00;;;20.40;96.60;;;;;;5011706;28;20196;-71
2023/08/26 18:14:21;;;;;;;13.73;3.50;;;20.30;98.70;;;;;;5029408;28;20204;-72
2023/08/26 18:16:48;;;;;;;10.23;6.13;;;20.30;99.80;;;;;;5000886;28;20267;-72
2023/08/26 18:19:15;;;;;;;10.57;5.63;;;20.20;99.90;;;;;;5016855;28;20598;-64
2023/08/26 18:21:43;;;;;;;11.85;6.32;;;20.00;99.90;;;;;;4996694;28;20533;-73
2023/08/26 18:24:11;;;;;;;12.45;6.70;;;19.90;99.90;;;;;;5042687;28;20616;-68
2023/08/26 18:26:41;;;;;;;6.30;3.80;;;19.90;99.90;;;;;;5000394;28;20665;-66
2023/08/26 18:29:08;;;;;;;5.25;3.05;;;19.90;99.90;;;;;;5009775;28;20208;-60
2023/08/26 18:31:35;;;;;;;4.75;1.83;;;20.00;99.90;;;;;;5024469;28;20283;-70
2023/08/26 18:34:06;;;;;;;2.10;1.90;;;19.90;99.90;;;;;;5024686;28;20279;-71
2023/08/26 18:36:33;;;;;;;3.50;1.95;;;19.80;99.90;;;;;;5011472;28;20239;-70
2023/08/26 18:39:00;;;;;;;1.92;1.63;;;19.70;99.90;;;;;;5028932;28;20246;-61
2023/08/26 18:41:27;;;;;;;4.40;2.13;;;19.40;99.90;;;;;;5024379;28;20202;-63
2023/08/26 18:43:55;;;;;;;4.32;2.30;;;19.30;99.90;;;;;;5010211;28;20192;-69
2023/08/26 18:46:22;;;;;;;8.10;3.53;;;19.20;99.90;;;;;;5028963;28;20187;-71
2023/08/26 18:48:49;;;;;;;4.60;2.92;;;19.20;99.90;;;;;;5028863;28;20192;-71
2023/08/26 18:51:16;;;;;;;4.57;3.45;;;19.20;99.90;;;;;;5015116;28;20202;-62
2023/08/26 18:53:43;;;;;;;2.30;2.10;;;19.20;99.90;;;;;;5038953;28;20191;-62
2023/08/26 18:56:11;;;;;;;3.60;2.97;;;19.10;99.90;;;;;;5032505;28;20682;-67
2023/08/26 18:58:38;;;;;;;2.70;2.08;;;19.10;99.90;;;;;;5006867;28;20192;-73
2023/08/26 19:01:12;;;;;;;2.67;2.45;;;19.10;99.90;;;;;;5027042;28;20571;-75
2023/08/26 19:03:46;;;;;;;9.48;3.30;;;19.10;99.90;;;;;;5006126;28;20226;-72
2023/08/26 19:06:16;;;;;;;5.68;3.13;;;19.10;99.90;;;;;;4997576;28;20194;-63
2023/08/26 19:08:51;;;;;;;3.72;2.80;;;19.20;99.90;;;;;;5000150;28;20434;-62
2023/08/26 19:11:23;;;;;;;5.28;3.35;;;19.20;99.90;;;;;;5016885;28;20216;-71
2023/08/26 19:14:03;;;;;;;3.90;2.58;;;19.40;99.90;;;;;;5003169;28;20200;-64
2023/08/26 19:16:35;;;;;;;7.45;5.32;;;19.50;99.90;;;;;;5002639;28;20196;-62
2023/08/26 19:19:06;;;;;;;7.28;4.53;;;19.70;99.90;;;;;;5020262;28;20328;-72
2023/08/26 19:21:41;;;;;;;7.35;4.45;;;19.80;99.90;;;;;;5015677;28;20203;-70
2023/08/26 19:24:15;;;;;;;7.68;4.82;;;19.90;99.90;;;;;;5001300;28;20229;-70
2023/08/26 19:26:48;;;;;;;6.65;3.00;;;19.90;99.90;;;;;;4983724;28;20208;-72
2023/08/26 19:29:18;;;;;;;7.05;3.58;;;20.00;99.90;;;;;;4981027;28;20627;-72
2023/08/26 19:32:01;;;;;;;2.58;2.38;;;19.90;99.90;;;;;;4998055;28;20207;-62
2023/08/26 19:34:31;;;;;;;2.92;2.47;;;19.90;99.90;;;;;;4997517;28;20212;-62
2023/08/26 19:36:58;;;;;;;2.50;2.30;;;19.80;99.90;;;;;;5000866;28;20221;-71
2023/08/26 19:39:25;;;;;;;3.97;2.78;;;19.80;99.90;;;;;;5000708;28;20883;-69
2023/08/26 19:41:53;;;;;;;5.53;3.92;;;19.80;99.90;;;;;;4999412;28;20212;-62
2023/08/26 19:44:20;;;;;;;7.65;3.30;;;19.80;99.90;;;;;;5002280;28;20197;-71
2023/08/26 19:46:47;;;;;;;3.25;2.95;;;19.70;99.90;;;;;;4984924;28;20219;-69
2023/08/26 19:49:14;;;;;;;9.02;6.20;;;19.60;99.90;;;;;;5001280;28;20233;-63
2023/08/26 19:51:42;;;;;;;8.15;5.55;;;19.50;99.90;;;;;;4991073;28;20204;-63
2023/08/26 19:54:09;;;;;;;14.57;4.50;;;19.50;99.90;;;;;;5000285;28;20324;-65
2023/08/26 19:56:38;;;;;;;6.45;4.78;;;19.60;99.90;;;;;;4999452;28;20306;-62
2023/08/26 19:59:08;;;;;;;8.65;4.25;;;19.60;99.90;;;;;;4999247;28;20284;-65
2023/08/26 20:01:38;;;;;;;6.78;4.57;;;19.60;99.90;;;;;;5001314;28;20201;-67
2023/08/26 20:04:05;;;;;;;5.22;3.95;;;19.60;99.90;;;;;;5001648;28;20193;-71
2023/08/26 20:06:35;;;;;;;5.38;4.20;;;19.60;99.90;;;;;;4984798;28;20204;-62
2023/08/26 20:09:05;;;;;;;5.00;4.20;;;19.50;99.90;;;;;;4999540;28;20205;-63
2023/08/26 20:11:32;;;;;;;7.00;3.53;;;19.40;99.90;;;;;;5001915;28;20213;-63
2023/08/26 20:13:59;;;;;;;7.10;3.90;;;19.30;99.90;;;;;;4994372;28;20267;-69
2023/08/26 20:16:27;;;;;;;4.22;3.15;;;18.80;99.90;;;;;;4997942;28;20695;-63
2023/08/26 20:18:57;;;;;;;5.88;3.08;;;18.70;99.90;;;;;;5003963;28;20292;-70
2023/08/26 20:21:27;;;;;;;5.00;3.25;;;18.40;99.90;;;;;;5001575;28;20219;-66
2023/08/26 20:23:54;;;;;;;4.03;3.00;;;18.30;99.90;;;;;;5002434;28;20226;-66
2023/08/26 20:26:21;;;;;;;4.45;3.45;;;18.40;99.90;;;;;;5003098;28;20192;-70